Time;durP1;ratioP1;P1;durP2;ratioP2;P2;SDS_P1;SDS_P2;PMS_P1;PMS_P2;Temp;Humidity;BMP_temperature;BMP_pressure;BME280_temperature;BME280_humidity;BME280_pressure;Samples;Min_cycle;Max_cycle;Signal;HPM_P1;HPM_P2
2021/04/01 00:00:59;;;;;;;0.98;0.88;;;20.50;50.00;;;;;;7711209;23;20081;-65
2021/04/01 00:03:59;;;;;;;1.60;1.10;;;20.40;49.90;;;;;;7710761;23;20004;-66
2021/04/01 00:07:00;;;;;;;1.20;1.00;;;20.50;50.00;;;;;;7710980;23;20012;-66
2021/04/01 00:10:01;;;;;;;1.40;1.10;;;20.50;50.00;;;;;;7710386;23;20080;-65
2021/04/01 00:13:03;;;;;;;2.13;1.20;;;20.50;50.00;;;;;;7711176;23;20012;-66
2021/04/01 00:16:04;;;;;;;2.35;1.25;;;20.40;49.90;;;;;;7710752;23;20436;-65
2021/04/01 00:19:05;;;;;;;1.60;1.20;;;20.50;50.00;;;;;;7710314;23;20000;-65
2021/04/01 00:22:05;;;;;;;1.88;1.27;;;20.50;50.00;;;;;;7711091;23;20008;-67
2021/04/01 00:25:08;;;;;;;1.58;1.17;;;20.40;49.90;;;;;;7710390;23;20337;-66
2021/04/01 00:28:09;;;;;;;1.80;1.35;;;20.40;49.90;;;;;;7710650;23;20008;-66
2021/04/01 00:31:09;;;;;;;2.08;1.20;;;20.50;50.00;;;;;;7710416;23;20020;-65
2021/04/01 00:34:10;;;;;;;1.38;1.00;;;20.40;49.90;;;;;;7710646;23;20035;-65
2021/04/01 00:37:10;;;;;;;1.65;1.35;;;20.50;50.00;;;;;;7710535;23;20011;-65
2021/04/01 00:40:12;;;;;;;1.83;1.10;;;20.50;50.00;;;;;;7710493;23;20079;-66
2021/04/01 00:43:13;;;;;;;1.63;0.93;;;20.50;50.00;;;;;;7710710;23;20000;-65
2021/04/01 00:46:14;;;;;;;1.67;1.00;;;20.50;50.00;;;;;;7710776;23;20013;-66
2021/04/01 00:49:15;;;;;;;1.60;1.10;;;20.50;50.00;;;;;;7710124;23;20029;-66
2021/04/01 00:52:24;;;;;;;2.13;1.33;;;20.50;50.00;;;;;;7710180;23;20143;-66
2021/04/01 00:55:25;;;;;;;3.15;1.30;;;20.50;50.00;;;;;;7708737;23;20382;-66
2021/04/01 00:58:25;;;;;;;1.75;1.20;;;20.50;50.00;;;;;;7709976;23;20016;-66
2021/04/01 01:04:36;;;;;;;1.38;1.10;;;20.50;50.00;;;;;;7710083;23;20039;-66
2021/04/01 01:07:37;;;;;;;2.42;1.20;;;20.50;50.00;;;;;;7710102;23;20013;-65
2021/04/01 01:10:38;;;;;;;2.25;1.30;;;20.40;49.90;;;;;;7710133;23;20476;-65
2021/04/01 01:13:39;;;;;;;1.38;1.15;;;20.40;49.90;;;;;;7709760;23;20067;-65
2021/04/01 01:16:39;;;;;;;1.83;1.02;;;20.50;50.00;;;;;;7710312;23;20376;-65
2021/04/01 01:19:41;;;;;;;1.75;1.20;;;20.50;50.00;;;;;;7709950;23;20035;-65
2021/04/01 01:22:42;;;;;;;2.95;1.52;;;20.50;50.00;;;;;;7709877;23;20071;-66
2021/04/01 01:25:43;;;;;;;1.98;1.40;;;20.50;50.70;;;;;;7709758;23;20012;-66
2021/04/01 01:28:44;;;;;;;2.13;1.50;;;20.40;49.90;;;;;;7710180;23;20008;-66
2021/04/01 01:31:49;;;;;;;1.85;1.15;;;20.40;49.90;;;;;;7709894;23;20095;-66
2021/04/01 01:34:49;;;;;;;1.90;1.23;;;20.50;50.00;;;;;;7710053;23;20320;-65
2021/04/01 01:37:52;;;;;;;1.95;1.25;;;20.50;50.00;;;;;;7709777;23;20011;-65
2021/04/01 01:40:53;;;;;;;1.48;1.15;;;20.50;50.70;;;;;;7709645;23;20419;-66
2021/04/01 01:43:56;;;;;;;2.38;1.35;;;20.50;50.00;;;;;;7709913;23;20083;-65
2021/04/01 01:46:57;;;;;;;1.75;1.30;;;20.40;49.90;;;;;;7709130;23;20389;-66
2021/04/01 01:49:58;;;;;;;1.35;1.20;;;20.50;50.00;;;;;;7709325;23;20043;-66
2021/04/01 01:52:59;;;;;;;1.60;1.10;;;20.50;50.00;;;;;;7709303;23;20127;-66
2021/04/01 01:55:59;;;;;;;1.50;1.20;;;20.50;50.00;;;;;;7709726;23;20012;-66
2021/04/01 01:59:00;;;;;;;1.60;1.30;;;20.50;50.00;;;;;;7709300;23;20083;-66
2021/04/01 02:02:01;;;;;;;1.60;1.30;;;20.40;49.90;;;;;;7710064;23;20004;-66
2021/04/01 02:05:02;;;;;;;1.55;1.30;;;20.50;50.00;;;;;;7709164;23;20047;-65
2021/04/01 02:08:04;;;;;;;1.58;1.17;;;20.50;50.00;;;;;;7709762;23;20328;-66
2021/04/01 02:11:05;;;;;;;1.67;1.30;;;20.50;50.00;;;;;;7709326;23;20005;-65
2021/04/01 02:14:07;;;;;;;2.35;1.13;;;20.50;50.00;;;;;;7709066;23;20014;-65
2021/04/01 02:17:09;;;;;;;1.85;1.42;;;20.40;49.90;;;;;;7709327;23;20336;-66
2021/04/01 02:20:11;;;;;;;2.00;1.30;;;20.50;50.00;;;;;;7709176;23;20011;-66
2021/04/01 02:23:14;;;;;;;2.08;1.20;;;20.50;50.00;;;;;;7709576;23;20080;-65
2021/04/01 02:26:15;;;;;;;1.60;1.20;;;20.40;50.00;;;;;;7709015;23;20472;-64
2021/04/01 02:29:15;;;;;;;1.80;1.38;;;20.50;50.00;;;;;;7709146;23;20015;-66
2021/04/01 02:32:16;;;;;;;1.50;1.20;;;20.50;50.00;;;;;;7709169;23;20012;-66
2021/04/01 02:35:16;;;;;;;1.88;1.20;;;20.50;50.00;;;;;;7709525;23;20005;-66
2021/04/01 02:38:17;;;;;;;2.13;1.27;;;20.40;49.90;;;;;;7708897;23;20033;-65
2021/04/01 02:41:17;;;;;;;1.77;1.40;;;20.50;50.00;;;;;;7709415;23;20012;-66
2021/04/01 02:44:18;;;;;;;2.15;1.35;;;20.50;50.00;;;;;;7710048;23;20001;-66
2021/04/01 02:47:18;;;;;;;2.17;1.30;;;20.50;50.00;;;;;;7711539;23;20048;-65
2021/04/01 02:50:20;;;;;;;1.58;1.30;;;20.50;50.00;;;;;;7711591;23;20364;-66
2021/04/01 02:53:21;;;;;;;1.55;1.20;;;20.50;50.00;;;;;;7712178;23;20008;-66
2021/04/01 02:56:22;;;;;;;1.77;1.17;;;20.50;50.00;;;;;;7712432;23;20063;-65
2021/04/01 02:59:22;;;;;;;2.20;1.42;;;20.50;50.00;;;;;;7712028;23;20012;-65
2021/04/01 03:02:25;;;;;;;1.63;1.30;;;20.50;50.00;;;;;;7711521;23;20012;-65
2021/04/01 03:05:26;;;;;;;1.73;1.25;;;20.50;50.00;;;;;;7711315;23;20024;-65
2021/04/01 03:08:27;;;;;;;1.13;1.00;;;20.50;50.00;;;;;;7711989;23;20008;-65
2021/04/01 03:11:27;;;;;;;1.10;0.90;;;20.50;50.00;;;;;;7711544;23;20436;-65
2021/04/01 03:14:28;;;;;;;1.45;1.10;;;20.40;49.90;;;;;;7711535;23;20005;-65
2021/04/01 03:17:29;;;;;;;1.65;1.20;;;20.50;50.00;;;;;;7711846;23;20001;-66
2021/04/01 03:20:29;;;;;;;1.60;1.17;;;20.50;50.00;;;;;;7711384;23;20001;-65
2021/04/01 03:23:30;;;;;;;1.92;1.33;;;20.50;50.00;;;;;;7711239;23;20371;-66
2021/04/01 03:26:30;;;;;;;1.15;1.05;;;20.50;50.00;;;;;;7711834;23;20008;-66
2021/04/01 03:29:31;;;;;;;1.60;1.13;;;20.50;50.00;;;;;;7711601;23;20020;-66
2021/04/01 03:32:33;;;;;;;1.48;1.00;;;20.50;50.00;;;;;;7711135;23;20088;-66
2021/04/01 03:35:34;;;;;;;1.83;1.48;;;20.50;50.00;;;;;;7711709;23;20428;-65
2021/04/01 03:38:35;;;;;;;2.17;1.23;;;20.50;50.00;;;;;;7711313;23;20015;-65
2021/04/01 03:41:35;;;;;;;1.15;0.90;;;20.50;50.00;;;;;;7711376;23;20009;-65
2021/04/01 03:44:36;;;;;;;1.42;1.20;;;20.50;50.00;;;;;;7711046;23;20037;-65
2021/04/01 03:47:37;;;;;;;2.38;1.30;;;20.50;50.00;;;;;;7710602;23;20313;-65
2021/04/01 03:50:38;;;;;;;1.95;1.20;;;20.50;50.00;;;;;;7708810;23;20067;-65
2021/04/01 03:53:39;;;;;;;1.75;1.27;;;20.40;49.90;;;;;;7708889;23;20011;-65
2021/04/01 03:56:48;;;;;;;1.20;1.05;;;20.50;50.00;;;;;;7709177;23;20032;-66
2021/04/01 03:59:55;;;;;;;1.45;1.10;;;20.50;50.00;;;;;;7708889;23;20439;-65
2021/04/01 04:06:51;;;;;;;1.13;0.90;;;20.50;50.00;;;;;;7710153;23;20021;-65
2021/04/01 04:12:48;;;;;;;1.40;1.02;;;20.50;50.00;;;;;;7713225;23;20468;-65
2021/04/01 04:15:48;;;;;;;1.33;1.00;;;20.50;50.00;;;;;;7708900;23;20004;-65
2021/04/01 04:18:49;;;;;;;1.02;0.93;;;20.50;50.00;;;;;;7708572;23;20007;-66
2021/04/01 04:21:50;;;;;;;1.23;0.90;;;20.50;50.00;;;;;;7708960;23;20013;-66
2021/04/01 04:24:50;;;;;;;1.27;0.98;;;20.50;50.00;;;;;;7708644;23;20380;-66
2021/04/01 04:28:00;;;;;;;1.58;1.00;;;20.50;50.00;;;;;;7708824;23;20059;-65
2021/04/01 04:31:01;;;;;;;1.60;1.10;;;20.50;50.00;;;;;;7708398;23;20004;-65
2021/04/01 04:34:02;;;;;;;1.60;1.10;;;20.50;49.90;;;;;;7708990;23;20055;-66
2021/04/01 04:37:02;;;;;;;1.52;1.13;;;20.50;50.00;;;;;;7708078;23;20076;-65
2021/04/01 04:40:05;;;;;;;1.70;1.00;;;20.50;49.90;;;;;;7708631;23;20102;-65
2021/04/01 04:43:05;;;;;;;1.67;1.30;;;20.50;49.90;;;;;;7708988;23;20004;-65
2021/04/01 04:46:06;;;;;;;1.27;1.08;;;20.50;49.90;;;;;;7708795;23;20036;-65
2021/04/01 04:49:06;;;;;;;1.27;0.90;;;20.50;50.00;;;;;;7686112;23;546453;-65
2021/04/01 04:52:07;;;;;;;1.30;1.05;;;20.50;50.00;;;;;;7710461;23;20070;-65
2021/04/01 04:55:10;;;;;;;2.60;1.60;;;20.50;50.00;;;;;;7710658;23;20004;-65
2021/04/01 05:07:34;;;;;;;2.28;1.23;;;20.50;50.00;;;;;;7710477;23;20312;-65
2021/04/01 05:10:34;;;;;;;1.33;1.00;;;20.50;50.00;;;;;;7710461;23;20032;-66
2021/04/01 05:13:35;;;;;;;1.35;0.80;;;20.50;50.00;;;;;;7710505;23;20004;-65
2021/04/01 05:16:35;;;;;;;1.52;1.23;;;20.50;50.00;;;;;;7710592;23;20036;-66
2021/04/01 05:19:38;;;;;;;1.50;1.00;;;20.50;50.00;;;;;;7709960;23;20019;-65
2021/04/01 05:25:47;;;;;;;1.80;1.10;;;20.50;50.00;;;;;;7713395;23;20023;-66
2021/04/01 05:28:52;;;;;;;1.67;1.10;;;20.50;50.00;;;;;;7709960;23;20005;-65
2021/04/01 05:31:52;;;;;;;1.42;1.15;;;20.50;50.00;;;;;;7710178;23;20083;-66
2021/04/01 05:34:54;;;;;;;1.60;1.10;;;20.50;50.00;;;;;;7710108;23;20009;-66
2021/04/01 05:37:54;;;;;;;1.38;0.93;;;20.50;50.00;;;;;;7709733;23;20001;-66
2021/04/01 05:40:55;;;;;;;3.67;1.15;;;20.50;50.00;;;;;;7709949;23;20313;-65
2021/04/01 05:44:11;;;;;;;1.30;1.10;;;20.50;50.00;;;;;;7709980;23;20005;-65
2021/04/01 06:03:18;;;;;;;1.10;0.90;;;20.50;49.90;;;;;;7711868;23;20017;-65
2021/04/01 06:06:23;;;;;;;1.45;0.90;;;20.50;50.00;;;;;;7711517;23;20376;-65
2021/04/01 06:09:26;;;;;;;1.35;1.10;;;20.50;49.90;;;;;;7711507;23;20448;-65
2021/04/01 06:12:31;;;;;;;0.98;0.80;;;20.50;50.00;;;;;;7709837;23;20036;-65
2021/04/01 06:15:35;;;;;;;1.52;1.00;;;20.50;50.00;;;;;;7711640;23;20317;-65
2021/04/01 06:18:42;;;;;;;1.15;1.05;;;20.50;49.90;;;;;;7711807;23;20001;-66
2021/04/01 06:21:48;;;;;;;0.90;0.85;;;20.50;50.00;;;;;;7711530;23;20005;-65
2021/04/01 06:24:50;;;;;;;1.63;1.10;;;20.50;50.60;;;;;;7711675;23;20008;-65
2021/04/01 06:27:55;;;;;;;1.55;1.02;;;20.50;49.90;;;;;;7710945;23;20020;-65
2021/04/01 06:30:58;;;;;;;1.27;1.08;;;20.50;50.00;;;;;;7710981;23;20511;-64
2021/04/01 06:34:01;;;;;;;1.70;0.93;;;20.50;49.90;;;;;;7711393;23;20312;-65
2021/04/01 06:37:03;;;;;;;1.52;1.10;;;20.50;50.00;;;;;;7711280;23;20008;-65
2021/04/01 06:40:05;;;;;;;1.08;0.98;;;20.50;49.90;;;;;;7711073;23;20000;-65
2021/04/01 06:43:18;;;;;;;1.05;0.82;;;20.50;50.00;;;;;;7711699;23;20159;-66
2021/04/01 06:46:20;;;;;;;1.17;1.00;;;20.50;50.00;;;;;;7711189;23;20012;-65
2021/04/01 06:52:58;;;;;;;1.70;1.13;;;20.50;50.00;;;;;;7710902;23;20008;-65
2021/04/01 06:56:13;;;;;;;1.40;1.13;;;20.50;49.90;;;;;;7711136;23;20008;-65
2021/04/01 07:02:53;;;;;;;1.05;0.82;;;20.50;50.00;;;;;;7710528;23;20432;-65
2021/04/01 07:06:06;;;;;;;1.60;1.23;;;20.50;49.90;;;;;;7710700;23;20227;-65
2021/04/01 07:09:49;;;;;;;1.20;1.10;;;20.50;49.90;;;;;;7711133;23;20012;-65
2021/04/01 07:12:51;;;;;;;1.80;1.10;;;20.50;49.90;;;;;;7711084;23;20019;-65
2021/04/01 07:15:55;;;;;;;2.15;1.20;;;20.50;50.00;;;;;;7710469;23;20040;-66
2021/04/01 07:45:49;;;;;;;1.00;0.80;;;20.50;49.90;;;;;;7711243;23;20084;-64
2021/04/01 07:48:46;;;;;;;1.58;1.10;;;20.50;50.00;;;;;;7706079;23;20437;-65
2021/04/01 07:51:58;;;;;;;1.42;1.17;;;20.50;49.90;;;;;;7707324;23;20016;-64
2021/04/01 08:04:17;;;;;;;1.40;0.70;;;20.50;49.90;;;;;;7711320;23;20012;-65
2021/04/01 08:07:20;;;;;;;1.27;1.10;;;20.50;49.90;;;;;;7711677;23;20502;-65
2021/04/01 08:10:25;;;;;;;1.75;0.95;;;20.50;50.00;;;;;;7711308;23;20011;-65
2021/04/01 08:13:31;;;;;;;1.10;1.00;;;20.50;49.90;;;;;;7711367;23;20005;-65
2021/04/01 08:16:39;;;;;;;1.17;0.90;;;20.50;49.90;;;;;;7710987;23;20350;-65
2021/04/01 08:19:39;;;;;;;1.77;1.20;;;20.50;49.90;;;;;;7711050;23;20363;-65
2021/04/01 08:22:47;;;;;;;1.05;0.95;;;20.50;49.90;;;;;;7711445;23;20001;-65
2021/04/01 08:25:56;;;;;;;1.08;0.98;;;20.50;49.90;;;;;;7710863;23;20455;-65
2021/04/01 08:32:44;;;;;;;1.10;0.90;;;20.50;49.90;;;;;;7712035;23;20468;-65
2021/04/01 08:35:44;;;;;;;1.70;1.05;;;20.50;49.90;;;;;;7708924;23;20000;-64
2021/04/01 08:38:45;;;;;;;4.68;1.30;;;20.50;49.90;;;;;;7710403;23;20005;-65
2021/04/01 08:42:18;;;;;;;4.78;1.20;;;20.50;49.90;;;;;;7710439;23;20035;-65
2021/04/01 08:45:37;;;;;;;2.20;0.98;;;20.60;50.00;;;;;;7710345;23;20279;-65
2021/04/01 08:49:02;;;;;;;1.98;1.27;;;20.60;49.90;;;;;;7710356;23;20092;-65
2021/04/01 08:52:31;;;;;;;2.47;1.00;;;20.50;49.80;;;;;;7710804;23;20055;-65
2021/04/01 08:55:39;;;;;;;1.67;1.00;;;20.60;49.80;;;;;;7669795;23;20001;-65
2021/04/01 08:58:42;;;;;;;2.70;1.33;;;20.60;49.80;;;;;;7711277;23;20005;-65
2021/04/01 09:01:43;;;;;;;3.00;1.95;;;20.60;49.70;;;;;;7710868;23;20070;-65
2021/04/01 09:04:52;;;;;;;3.90;2.38;;;20.60;49.60;;;;;;7711413;23;20008;-64
2021/04/01 09:07:59;;;;;;;3.58;2.42;;;20.60;49.70;;;;;;7709817;23;20023;-62
2021/04/01 09:11:01;;;;;;;4.38;2.65;;;20.70;49.70;;;;;;7710968;23;20419;-65
2021/04/01 09:14:11;;;;;;;4.22;2.50;;;20.60;49.60;;;;;;7710769;23;20001;-65
2021/04/01 09:17:15;;;;;;;4.50;2.75;;;20.60;49.60;;;;;;7710540;23;20005;-65
2021/04/01 09:20:20;;;;;;;7.68;3.05;;;20.60;49.60;;;;;;7710445;23;20004;-64
2021/04/01 09:23:41;;;;;;;7.30;2.67;;;20.60;49.60;;;;;;7711338;23;20099;-65
2021/04/01 09:26:48;;;;;;;4.10;2.60;;;20.60;49.70;;;;;;7709660;23;20426;-65
2021/04/01 09:29:59;;;;;;;7.82;2.92;;;20.60;49.70;;;;;;7710294;23;20391;-64
2021/04/01 09:33:10;;;;;;;6.78;2.85;;;20.60;49.70;;;;;;7710148;23;20003;-66
2021/04/01 09:36:20;;;;;;;4.07;2.85;;;20.60;49.70;;;;;;7710521;23;20009;-65
2021/04/01 09:39:31;;;;;;;4.28;2.80;;;20.60;49.70;;;;;;7709925;23;20340;-66
2021/04/01 09:42:43;;;;;;;3.50;2.50;;;20.60;49.80;;;;;;7710309;23;20008;-65
2021/04/01 09:45:48;;;;;;;6.80;2.97;;;20.60;49.80;;;;;;7709967;23;20432;-65
2021/04/01 09:49:05;;;;;;;9.73;3.10;;;20.60;49.80;;;;;;7710163;23;20511;-65
2021/04/01 09:52:07;;;;;;;6.03;3.08;;;20.60;49.80;;;;;;7710230;23;20008;-65
2021/04/01 09:55:14;;;;;;;4.30;2.70;;;20.60;49.80;;;;;;7710099;23;20071;-66
2021/04/01 09:58:15;;;;;;;7.53;2.88;;;20.60;49.90;;;;;;7709800;23;20008;-65
2021/04/01 10:01:35;;;;;;;4.35;2.70;;;20.60;49.80;;;;;;7709357;23;20010;-65
2021/04/01 10:04:38;;;;;;;3.70;2.55;;;20.60;49.80;;;;;;7709336;23;20009;-65
2021/04/01 10:07:55;;;;;;;4.40;2.80;;;20.60;49.90;;;;;;7709733;23;20013;-64
2021/04/01 10:11:18;;;;;;;5.90;2.78;;;20.60;49.90;;;;;;7710001;23;20013;-65
2021/04/01 10:14:20;;;;;;;4.43;3.00;;;20.60;49.90;;;;;;7709077;23;20050;-65
2021/04/01 10:17:22;;;;;;;4.88;3.35;;;20.60;49.80;;;;;;7709463;23;20008;-65
2021/04/01 10:20:23;;;;;;;5.82;2.95;;;20.60;49.70;;;;;;7710259;23;20004;-65
2021/04/01 10:23:24;;;;;;;5.22;3.30;;;20.60;49.80;;;;;;7709367;23;20466;-65
2021/04/01 10:26:34;;;;;;;5.93;3.35;;;20.60;49.80;;;;;;7706374;23;20008;-65
2021/04/01 10:32:53;;;;;;;4.97;3.33;;;20.50;49.70;;;;;;7711596;23;20535;-67
2021/04/01 10:35:56;;;;;;;8.00;3.88;;;20.60;50.30;;;;;;7708495;23;20008;-65
2021/04/01 10:39:09;;;;;;;7.72;3.45;;;20.60;50.30;;;;;;7706352;23;20000;-65
2021/04/01 10:42:12;;;;;;;7.95;3.22;;;20.60;50.30;;;;;;7703714;23;20011;-65
2021/04/01 10:45:20;;;;;;;4.85;3.25;;;20.60;49.90;;;;;;7707471;23;20005;-65
2021/04/01 10:48:53;;;;;;;4.97;3.00;;;20.60;49.90;;;;;;7706333;23;20009;-66
2021/04/01 10:51:55;;;;;;;5.93;3.25;;;20.60;50.00;;;;;;7689768;23;20408;-65
2021/04/01 10:54:56;;;;;;;4.47;2.70;;;20.60;49.90;;;;;;7707461;23;20503;-65
2021/04/01 10:58:07;;;;;;;9.75;3.00;;;20.60;49.90;;;;;;7707937;23;20067;-65
2021/04/01 11:01:08;;;;;;;4.63;3.03;;;20.60;50.00;;;;;;7708155;23;20024;-65
2021/04/01 11:04:10;;;;;;;4.00;2.58;;;20.60;49.90;;;;;;7706865;23;20077;-65
2021/04/01 11:07:11;;;;;;;7.30;2.63;;;20.60;49.90;;;;;;7710302;23;20009;-63
2021/04/01 11:10:22;;;;;;;12.75;2.80;;;20.30;50.90;;;;;;7710069;23;20487;-65
2021/04/01 11:13:32;;;;;;;7.50;2.75;;;20.30;51.00;;;;;;7710165;23;20068;-64
2021/04/01 11:16:36;;;;;;;7.13;2.28;;;20.50;50.00;;;;;;7708414;23;20012;-64
2021/04/01 11:19:39;;;;;;;5.00;2.63;;;20.60;48.30;;;;;;7709945;23;20023;-65
2021/04/01 11:22:40;;;;;;;4.40;2.88;;;20.70;47.70;;;;;;7711189;23;20030;-64
2021/04/01 11:25:50;;;;;;;4.30;2.60;;;20.70;47.20;;;;;;7709991;23;20016;-64
2021/04/01 11:28:51;;;;;;;3.15;2.50;;;20.80;46.90;;;;;;7709481;23;20432;-64
2021/04/01 11:31:53;;;;;;;5.75;3.05;;;20.80;46.80;;;;;;7710751;23;20504;-65
2021/04/01 11:34:56;;;;;;;6.03;2.67;;;20.90;46.70;;;;;;7710148;23;20364;-64
2021/04/01 11:37:57;;;;;;;5.15;2.88;;;21.00;46.60;;;;;;7709989;23;20031;-64
2021/04/01 11:41:00;;;;;;;4.78;2.70;;;21.00;46.50;;;;;;7709504;23;20008;-64
2021/04/01 11:44:01;;;;;;;3.88;2.28;;;21.00;46.30;;;;;;7709681;23;20381;-64
2021/04/01 11:47:12;;;;;;;3.67;2.22;;;21.00;46.30;;;;;;7708217;23;20008;-64
2021/04/01 11:50:12;;;;;;;4.72;2.58;;;21.00;46.10;;;;;;7709668;23;20020;-64
2021/04/01 11:53:14;;;;;;;6.53;2.38;;;21.10;46.20;;;;;;7709866;23;20100;-65
2021/04/01 11:56:15;;;;;;;3.75;2.10;;;21.10;46.50;;;;;;7707897;23;20367;-64
2021/04/01 11:59:28;;;;;;;2.22;1.80;;;21.20;46.10;;;;;;7709671;23;20004;-64
2021/04/01 12:02:31;;;;;;;3.75;2.30;;;21.20;46.60;;;;;;7709629;23;20004;-64
2021/04/01 12:05:37;;;;;;;3.08;2.42;;;21.20;45.80;;;;;;7709515;23;20012;-62
2021/04/01 12:08:39;;;;;;;13.52;2.40;;;21.20;45.80;;;;;;7706832;23;20011;-64
2021/04/01 12:11:41;;;;;;;3.88;2.10;;;21.20;45.70;;;;;;7709872;23;20099;-64
2021/04/01 12:14:43;;;;;;;3.38;2.03;;;21.20;45.70;;;;;;7709965;23;20013;-63
2021/04/01 12:17:45;;;;;;;3.10;1.95;;;21.20;45.80;;;;;;7707427;23;20112;-63
2021/04/01 12:20:46;;;;;;;3.08;1.85;;;21.20;45.60;;;;;;7708977;23;20013;-64
2021/04/01 12:23:53;;;;;;;2.90;2.20;;;21.20;45.50;;;;;;7710212;23;20079;-64
2021/04/01 12:26:58;;;;;;;4.20;1.88;;;21.20;45.40;;;;;;7708883;23;20019;-64
2021/04/01 12:29:59;;;;;;;2.58;1.90;;;21.20;45.40;;;;;;7708627;23;20008;-64
2021/04/01 12:33:16;;;;;;;3.58;1.95;;;21.20;45.40;;;;;;7709132;23;20004;-64
2021/04/01 12:36:29;;;;;;;3.92;1.85;;;21.20;45.40;;;;;;7708032;23;20024;-63
2021/04/01 12:39:30;;;;;;;3.60;1.92;;;21.20;45.40;;;;;;7706548;23;20478;-64
2021/04/01 12:42:33;;;;;;;2.05;1.60;;;21.20;45.40;;;;;;7708738;23;20004;-64
2021/04/01 12:45:34;;;;;;;4.65;2.15;;;21.20;45.40;;;;;;7707623;23;20023;-63
2021/04/01 12:48:39;;;;;;;2.50;1.80;;;21.20;45.40;;;;;;7708431;23;20366;-63
2021/04/01 12:51:45;;;;;;;3.10;1.70;;;21.20;45.00;;;;;;7709253;23;20436;-63
2021/04/01 12:54:51;;;;;;;2.92;1.92;;;21.30;45.20;;;;;;7709683;23;20361;-64
2021/04/01 12:57:51;;;;;;;2.17;1.58;;;21.30;45.10;;;;;;7707541;23;20032;-64
2021/04/01 13:01:03;;;;;;;3.90;1.63;;;21.30;45.00;;;;;;7708793;23;20079;-64
2021/04/01 13:04:05;;;;;;;2.60;1.52;;;21.30;45.10;;;;;;7709537;23;20035;-64
2021/04/01 13:07:28;;;;;;;2.78;2.03;;;21.30;45.00;;;;;;7709306;23;20020;-64
2021/04/01 13:13:29;;;;;;;2.58;1.70;;;21.20;45.00;;;;;;7713138;23;20451;-64
2021/04/01 13:16:30;;;;;;;3.00;1.70;;;21.20;45.00;;;;;;7707462;23;20016;-64
2021/04/01 13:19:31;;;;;;;1.98;1.38;;;21.30;44.90;;;;;;7707012;23;20322;-64
2021/04/01 13:22:43;;;;;;;2.63;1.50;;;21.30;44.80;;;;;;7708201;23;20352;-64
2021/04/01 13:25:45;;;;;;;2.03;1.40;;;21.30;44.80;;;;;;7708568;23;20012;-64
2021/04/01 13:28:46;;;;;;;3.33;1.38;;;21.30;44.70;;;;;;7707393;23;20024;-64
2021/04/01 13:32:03;;;;;;;2.22;1.55;;;21.30;44.80;;;;;;7707918;23;20079;-65
2021/04/01 13:35:34;;;;;;;1.80;1.40;;;21.40;45.00;;;;;;7706402;23;20004;-64
2021/04/01 13:38:37;;;;;;;5.18;1.35;;;21.40;44.50;;;;;;7707476;23;20012;-64
2021/04/01 13:42:03;;;;;;;4.03;1.63;;;21.40;44.60;;;;;;7707322;23;20324;-65
2021/04/01 13:45:13;;;;;;;2.88;1.50;;;21.40;44.50;;;;;;7707683;23;20001;-65
2021/04/01 13:48:23;;;;;;;2.45;1.52;;;21.40;44.70;;;;;;7708285;23;20082;-65
2021/04/01 13:51:28;;;;;;;6.13;2.22;;;21.40;44.60;;;;;;7707948;23;20467;-65
2021/04/01 13:54:43;;;;;;;2.75;1.65;;;21.40;44.60;;;;;;7708826;23;20001;-64
2021/04/01 14:03:45;;;;;;;2.65;1.67;;;21.40;44.50;;;;;;7709779;23;20016;-65
2021/04/01 14:11:05;;;;;;;2.45;1.63;;;21.40;44.70;;;;;;7706909;23;20012;-65
2021/04/01 14:14:06;;;;;;;4.25;1.83;;;21.40;44.50;;;;;;7708228;23;20012;-65
2021/04/01 14:17:07;;;;;;;1.95;1.33;;;21.40;44.60;;;;;;7708479;23;20008;-65
2021/04/01 14:20:11;;;;;;;2.65;1.48;;;21.40;44.50;;;;;;7706511;23;20458;-65
2021/04/01 14:23:18;;;;;;;4.68;2.03;;;21.40;44.50;;;;;;7707582;23;20122;-65
2021/04/01 14:29:57;;;;;;;4.55;2.45;;;21.40;44.40;;;;;;7656758;23;20009;-65
2021/04/01 14:32:59;;;;;;;6.33;2.30;;;21.40;44.30;;;;;;7708424;23;20015;-65
2021/04/01 14:36:01;;;;;;;4.45;2.45;;;21.40;44.30;;;;;;7706924;23;20007;-65
2021/04/01 14:39:02;;;;;;;2.67;2.05;;;21.40;44.20;;;;;;7708205;23;20031;-65
2021/04/01 14:42:05;;;;;;;3.22;1.90;;;21.40;44.20;;;;;;7710287;23;20001;-65
2021/04/01 14:45:07;;;;;;;4.03;2.20;;;21.40;44.30;;;;;;7712195;23;20424;-65
2021/04/01 14:48:09;;;;;;;3.13;2.10;;;21.40;44.40;;;;;;7709412;23;20103;-65
2021/04/01 14:51:11;;;;;;;2.53;1.95;;;21.40;44.30;;;;;;7711133;23;20115;-65
2021/04/01 14:54:14;;;;;;;3.13;1.98;;;21.40;44.20;;;;;;7711261;23;20031;-65
2021/04/01 14:57:17;;;;;;;1.70;1.52;;;21.40;44.10;;;;;;7711763;23;20186;-65
2021/04/01 15:00:19;;;;;;;3.30;1.83;;;21.40;44.20;;;;;;7709316;23;20104;-65
2021/04/01 15:03:21;;;;;;;5.60;2.15;;;21.40;44.30;;;;;;7711502;23;20009;-64
2021/04/01 15:06:25;;;;;;;6.63;1.75;;;21.40;44.20;;;;;;7711104;23;20063;-65
2021/04/01 15:09:26;;;;;;;1.80;1.40;;;21.40;44.20;;;;;;7709951;23;20451;-65
2021/04/01 15:12:27;;;;;;;3.88;1.80;;;21.40;44.00;;;;;;7710457;23;20012;-65
2021/04/01 15:15:30;;;;;;;1.98;1.33;;;21.40;44.10;;;;;;7711057;23;20092;-65
2021/04/01 15:18:31;;;;;;;2.85;1.58;;;21.40;44.00;;;;;;7710727;23;20036;-65
2021/04/01 15:21:32;;;;;;;2.63;1.83;;;21.40;44.10;;;;;;7710258;23;20107;-65
2021/04/01 15:24:33;;;;;;;1.80;1.50;;;21.40;44.10;;;;;;7710250;23;20440;-65
2021/04/01 15:27:34;;;;;;;1.92;1.40;;;21.40;43.90;;;;;;7708222;23;20052;-65
2021/04/01 15:30:34;;;;;;;2.53;1.50;;;21.40;43.90;;;;;;7710635;23;20387;-65
2021/04/01 15:33:35;;;;;;;1.83;1.40;;;21.40;43.90;;;;;;7711179;23;20059;-65
2021/04/01 15:36:35;;;;;;;1.95;1.27;;;21.40;43.90;;;;;;7709469;23;20364;-64
2021/04/01 15:39:36;;;;;;;2.47;1.50;;;21.40;44.00;;;;;;7709979;23;20004;-64
2021/04/01 15:42:37;;;;;;;3.05;1.30;;;21.40;44.00;;;;;;7710312;23;20471;-63
2021/04/01 15:45:37;;;;;;;2.28;1.48;;;21.40;44.00;;;;;;7710307;23;20004;-64
2021/04/01 15:48:39;;;;;;;2.30;1.48;;;21.40;43.90;;;;;;7709301;23;20028;-65
2021/04/01 15:51:39;;;;;;;2.35;1.40;;;21.40;43.90;;;;;;7710466;23;20012;-64
2021/04/01 15:54:40;;;;;;;3.13;1.40;;;21.40;43.90;;;;;;7710518;23;20001;-64
2021/04/01 15:57:42;;;;;;;2.20;1.40;;;21.40;43.90;;;;;;7709807;23;20083;-63
2021/04/01 16:00:43;;;;;;;2.55;1.40;;;21.40;43.90;;;;;;7709318;23;20039;-63
2021/04/01 16:03:43;;;;;;;1.50;1.30;;;21.40;43.90;;;;;;7710922;23;20383;-65
2021/04/01 16:06:44;;;;;;;3.67;1.20;;;21.40;43.80;;;;;;7709818;23;20502;-65
2021/04/01 16:09:45;;;;;;;2.55;1.45;;;21.40;43.80;;;;;;7709990;23;20075;-65
2021/04/01 16:12:45;;;;;;;4.93;1.30;;;21.50;43.90;;;;;;7709335;23;20005;-65
2021/04/01 16:15:47;;;;;;;2.70;1.20;;;21.40;43.80;;;;;;7706200;23;20036;-66
2021/04/01 16:18:48;;;;;;;2.05;1.13;;;21.40;43.80;;;;;;7708577;23;20060;-64
2021/04/01 16:21:49;;;;;;;2.55;1.35;;;21.40;43.80;;;;;;7708493;23;20009;-64
2021/04/01 16:24:49;;;;;;;2.25;1.25;;;21.40;43.80;;;;;;7708773;23;20461;-64
2021/04/01 16:27:50;;;;;;;1.90;1.15;;;21.40;43.90;;;;;;7706864;23;20012;-64
2021/04/01 16:30:51;;;;;;;1.65;1.30;;;21.40;43.90;;;;;;7707737;23;20004;-64
2021/04/01 16:33:58;;;;;;;1.42;1.23;;;21.40;43.90;;;;;;7709133;23;20027;-64
2021/04/01 16:36:59;;;;;;;2.33;1.25;;;21.40;43.80;;;;;;7707807;23;20452;-65
2021/04/01 16:39:59;;;;;;;1.45;1.17;;;21.40;43.80;;;;;;7706805;23;20009;-65
2021/04/01 16:43:00;;;;;;;2.85;1.40;;;21.40;43.80;;;;;;7708642;23;20459;-64
2021/04/01 16:46:01;;;;;;;1.20;1.05;;;21.40;43.70;;;;;;7708599;23;20024;-65
2021/04/01 16:49:02;;;;;;;2.42;1.48;;;21.40;43.70;;;;;;7707334;23;20024;-62
2021/04/01 16:52:05;;;;;;;1.45;1.17;;;21.50;43.80;;;;;;7707627;23;20027;-65
2021/04/01 16:55:08;;;;;;;1.73;1.20;;;21.50;43.70;;;;;;7707417;23;20028;-65
2021/04/01 16:58:09;;;;;;;1.20;1.00;;;21.50;43.70;;;;;;7707263;23;20313;-65
2021/04/01 17:01:10;;;;;;;1.90;1.20;;;21.50;43.80;;;;;;7706102;23;20058;-65
2021/04/01 17:04:14;;;;;;;1.73;0.90;;;21.50;43.60;;;;;;7708087;23;20005;-65
2021/04/01 17:07:15;;;;;;;6.03;1.30;;;21.50;43.70;;;;;;7707239;23;20054;-65
2021/04/01 17:10:15;;;;;;;2.95;0.88;;;21.50;43.70;;;;;;7707944;23;20005;-65
2021/04/01 17:13:16;;;;;;;1.98;0.90;;;21.50;43.70;;;;;;7707941;23;20439;-64
2021/04/01 17:16:16;;;;;;;1.45;1.10;;;21.50;43.60;;;;;;7707228;23;20005;-63
2021/04/01 17:19:17;;;;;;;1.50;1.02;;;21.50;43.70;;;;;;7707084;23;20068;-66
2021/04/01 17:22:17;;;;;;;2.75;1.17;;;21.50;43.80;;;;;;7708032;23;20011;-65
2021/04/01 17:25:18;;;;;;;1.00;0.90;;;21.50;43.90;;;;;;7708179;23;20317;-65
2021/04/01 17:28:18;;;;;;;4.85;1.08;;;21.50;43.70;;;;;;7706065;23;20582;-65
2021/04/01 17:31:19;;;;;;;1.58;1.10;;;21.50;43.70;;;;;;7708013;23;20001;-65
2021/04/01 17:34:20;;;;;;;1.77;1.00;;;21.50;43.70;;;;;;7707891;23;20598;-64
2021/04/01 17:37:21;;;;;;;1.40;0.80;;;21.50;43.60;;;;;;7707798;23;20016;-62
2021/04/01 17:40:21;;;;;;;6.10;1.15;;;21.50;43.60;;;;;;7706259;23;20301;-65